createdAt,value
2023-03-13T00:01:29.394Z,100392.41
2023-03-13T00:05:41.899Z,100367.78
2023-03-13T00:09:54.306Z,100376.59
2023-03-13T00:14:10.792Z,100388.75
2023-03-13T00:18:23.107Z,100385.94
2023-03-13T00:22:35.385Z,100387.81
2023-03-13T00:26:47.791Z,100387.56
2023-03-13T00:31:08.619Z,100384.22
2023-03-13T00:35:21.090Z,100395.34
2023-03-13T00:39:33.740Z,100395.25
2023-03-13T00:43:48.108Z,100404.84
2023-03-13T00:48:01.781Z,100396.00
2023-03-13T00:52:16.617Z,100403.88
2023-03-13T00:56:30.625Z,100409.19
2023-03-13T01:00:42.992Z,100420.81
2023-03-13T01:05:00.222Z,100414.41
2023-03-13T01:09:15.822Z,100420.34
2023-03-13T01:13:33.266Z,100426.81
2023-03-13T01:17:47.632Z,100416.81
2023-03-13T01:22:01.360Z,100416.69
2023-03-13T01:26:13.874Z,100422.75
2023-03-13T01:30:26.854Z,100419.94
2023-03-13T01:34:41.611Z,100421.78
2023-03-13T01:38:56.651Z,100432.91
2023-03-13T01:43:31.239Z,100434.97
2023-03-13T01:47:48.138Z,100450.00
2023-03-13T01:52:33.666Z,100439.56
2023-03-13T01:57:03.365Z,100443.53
2023-03-13T02:01:17.039Z,100445.38
2023-03-13T02:05:33.855Z,100453.88
2023-03-13T02:09:52.335Z,100446.75
2023-03-13T02:14:06.217Z,100452.31
2023-03-13T02:18:18.791Z,100460.97
2023-03-13T02:23:00.972Z,100460.06
2023-03-13T02:27:14.248Z,100472.94
2023-03-13T02:31:31.073Z,100476.50
2023-03-13T02:35:45.734Z,100480.19
2023-03-13T02:40:03.203Z,100486.94
2023-03-13T02:44:15.849Z,100485.88
2023-03-13T02:48:37.939Z,100492.44
2023-03-13T02:52:59.187Z,100495.09
2023-03-13T02:57:12.288Z,100505.56
2023-03-13T03:01:25.490Z,100516.75
2023-03-13T03:05:37.937Z,100519.91
2023-03-13T03:09:50.481Z,100534.41
2023-03-13T03:14:06.145Z,100537.38
2023-03-13T03:18:24.655Z,100539.97
2023-03-13T03:22:38.847Z,100544.97
2023-03-13T03:26:52.442Z,100559.69
2023-03-13T03:31:16.393Z,100575.16
2023-03-13T03:35:29.193Z,100586.34
2023-03-13T03:39:44.179Z,100596.09
2023-03-13T03:43:57.534Z,100602.84
2023-03-13T03:48:14.933Z,100600.31
2023-03-13T03:52:27.514Z,100602.06
2023-03-13T03:56:40.224Z,100619.03
2023-03-13T04:00:52.979Z,100616.19
2023-03-13T04:05:05.843Z,100634.28
2023-03-13T04:09:20.503Z,100637.56
2023-03-13T04:13:32.931Z,100634.63
2023-03-13T04:17:45.365Z,100637.97
2023-03-13T04:21:58.774Z,100631.13
2023-03-13T04:26:11.338Z,100634.47
2023-03-13T04:30:25.353Z,100629.38
2023-03-13T04:34:57.933Z,100634.91
2023-03-13T04:39:41.074Z,100641.22
2023-03-13T04:44:13.402Z,100643.75
2023-03-13T04:48:52.838Z,100654.97
2023-03-13T04:53:29.157Z,100661.78
2023-03-13T04:58:03.280Z,100673.78
2023-03-13T05:02:18.750Z,100692.94
2023-03-13T05:06:50.056Z,100682.22
2023-03-13T05:11:20.868Z,100692.44
2023-03-13T05:15:52.015Z,100689.91
2023-03-13T05:20:22.798Z,100684.25
2023-03-13T05:24:58.052Z,100685.88
2023-03-13T05:29:40.552Z,100689.16
2023-03-13T05:34:12.981Z,100701.91
2023-03-13T05:38:45.194Z,100697.69
2023-03-13T05:43:17.826Z,100698.00
2023-03-13T05:48:02.512Z,100686.25
2023-03-13T05:52:34.217Z,100686.47
2023-03-13T05:56:50.583Z,100688.72
2023-03-13T06:01:32.506Z,100691.38
2023-03-13T06:05:59.688Z,100684.56
2023-03-13T06:10:21.412Z,100691.91
2023-03-13T06:14:33.985Z,100688.56
2023-03-13T06:19:00.973Z,100693.19
2023-03-13T06:23:13.206Z,100686.34
2023-03-13T06:27:25.600Z,100686.66
2023-03-13T06:31:39.431Z,100696.34
2023-03-13T06:35:56.765Z,100699.13
2023-03-13T06:40:10.404Z,100701.72
2023-03-13T06:44:22.771Z,100709.66
2023-03-13T06:48:37.822Z,100718.31
2023-03-13T06:52:51.807Z,100715.59
2023-03-13T06:57:05.632Z,100706.16
2023-03-13T07:01:18.897Z,100715.88
2023-03-13T07:05:31.315Z,100725.47
2023-03-13T07:09:45.866Z,100717.59
2023-03-13T07:14:15.381Z,100729.81
2023-03-13T07:18:30.678Z,100736.19
2023-03-13T07:22:43.054Z,100739.84
2023-03-13T07:27:06.285Z,100725.19
2023-03-13T07:31:24.112Z,100722.56
2023-03-13T07:35:38.809Z,100728.63
2023-03-13T07:39:54.601Z,100728.47
2023-03-13T07:44:07.238Z,100726.66
2023-03-13T07:48:20.276Z,100723.13
2023-03-13T07:52:32.921Z,100737.31
2023-03-13T07:56:48.322Z,100739.56
2023-03-13T08:01:01.263Z,100748.19
2023-03-13T08:05:13.624Z,100757.72
2023-03-13T08:09:26.100Z,100745.25
2023-03-13T08:13:41.004Z,100750.75
2023-03-13T08:17:53.459Z,100747.88
2023-03-13T08:22:06.100Z,100748.06
2023-03-13T08:26:21.596Z,100746.38
2023-03-13T08:30:34.402Z,100748.38
2023-03-13T08:34:47.284Z,100743.81
2023-03-13T08:39:03.892Z,100732.91
2023-03-13T08:43:16.212Z,100734.34
2023-03-13T08:47:28.562Z,100738.09
2023-03-13T08:51:41.075Z,100728.34
2023-03-13T08:55:54.452Z,100736.81
2023-03-13T09:00:09.062Z,100730.13
2023-03-13T09:04:21.454Z,100743.84
2023-03-13T09:08:34.494Z,100737.78
2023-03-13T09:12:48.955Z,100741.91
2023-03-13T09:17:01.300Z,100741.84
2023-03-13T09:21:20.019Z,100726.94
2023-03-13T09:25:32.440Z,100730.97
2023-03-13T09:29:44.804Z,100730.22
2023-03-13T09:33:57.722Z,100716.19
2023-03-13T09:38:10.114Z,100718.97
2023-03-13T09:42:49.026Z,100711.81
2023-03-13T09:47:39.762Z,100715.78
2023-03-13T09:52:01.169Z,100710.66
2023-03-13T09:56:32.511Z,100710.09
2023-03-13T10:00:57.956Z,100722.50
2023-03-13T10:05:29.157Z,100715.63
2023-03-13T10:09:43.674Z,100720.78
2023-03-13T10:14:08.328Z,100713.59
2023-03-13T10:18:25.018Z,100718.50
2023-03-13T10:22:38.562Z,100712.03
2023-03-13T10:26:51.213Z,100712.97
2023-03-13T10:31:21.799Z,100712.78
2023-03-13T10:35:37.737Z,100715.94
2023-03-13T10:39:52.598Z,100718.22
2023-03-13T10:44:15.608Z,100718.13
2023-03-13T10:48:36.701Z,100722.53
2023-03-13T10:52:51.034Z,100712.63
2023-03-13T10:57:29.258Z,100706.00
2023-03-13T11:01:43.312Z,100701.22
2023-03-13T11:06:00.827Z,100714.94
2023-03-13T11:10:37.604Z,100704.69
2023-03-13T11:15:01.195Z,100703.38
2023-03-13T11:19:13.559Z,100707.22
2023-03-13T11:23:34.217Z,100705.56
2023-03-13T11:28:01.898Z,100697.44
2023-03-13T11:32:33.528Z,100692.56
2023-03-13T11:37:11.471Z,100691.09
2023-03-13T11:41:44.016Z,100682.22
2023-03-13T11:46:19.072Z,100676.53
2023-03-13T11:50:50.349Z,100674.28
2023-03-13T11:55:33.382Z,100672.69
2023-03-13T11:59:56.814Z,100667.41
2023-03-13T12:04:29.193Z,100669.25
2023-03-13T12:08:49.307Z,100665.72
2023-03-13T12:13:13.047Z,100664.53
2023-03-13T12:17:40.894Z,100664.28
2023-03-13T12:22:01.476Z,100659.75
2023-03-13T12:26:19.753Z,100647.63
2023-03-13T12:30:47.451Z,100652.66
2023-03-13T12:35:02.173Z,100637.25
2023-03-13T12:39:50.382Z,100643.97
2023-03-13T12:44:09.230Z,100640.09
2023-03-13T12:48:31.583Z,100634.09
2023-03-13T12:52:50.008Z,100637.03
2023-03-13T12:57:43.745Z,100631.59
2023-03-13T13:01:57.156Z,100630.84
2023-03-13T13:06:14.922Z,100627.63
2023-03-13T13:10:29.262Z,100630.47
2023-03-13T13:14:50.939Z,100627.13
2023-03-13T13:19:27.505Z,100633.81
2023-03-13T13:23:46.654Z,100633.72
2023-03-13T13:28:22.246Z,100634.06
2023-03-13T13:32:53.026Z,100622.97
2023-03-13T13:37:13.473Z,100621.06
2023-03-13T13:41:35.259Z,100623.47
2023-03-13T13:46:23.051Z,100620.28
2023-03-13T13:50:35.533Z,100624.19
2023-03-13T13:54:47.846Z,100616.53
2023-03-13T13:59:25.124Z,100627.44
2023-03-13T14:03:43.792Z,100630.00
2023-03-13T14:08:14.364Z,100619.84
2023-03-13T14:12:33.945Z,100623.25
2023-03-13T14:16:58.569Z,100624.38
2023-03-13T14:21:14.449Z,100626.75
2023-03-13T14:25:29.236Z,100640.38
2023-03-13T14:29:43.193Z,100627.06
2023-03-13T14:33:57.582Z,100634.63
2023-03-13T14:38:22.592Z,100640.81
2023-03-13T14:42:43.636Z,100634.16
2023-03-13T14:47:01.595Z,100640.53
2023-03-13T14:51:27.161Z,100634.19
2023-03-13T14:55:41.391Z,100627.09
2023-03-13T15:00:17.231Z,100627.28
2023-03-13T15:04:48.756Z,100629.06
2023-03-13T15:09:16.241Z,100626.56
2023-03-13T15:13:34.466Z,100625.41
2023-03-13T15:17:48.317Z,100628.97
2023-03-13T15:22:01.902Z,100630.19
2023-03-13T15:26:14.289Z,100645.84
2023-03-13T15:30:28.807Z,100645.66
2023-03-13T15:34:41.180Z,100642.44
2023-03-13T15:38:55.039Z,100633.34
2023-03-13T15:43:07.870Z,100632.09
2023-03-13T15:47:22.340Z,100627.31
2023-03-13T15:51:34.742Z,100632.06
2023-03-13T15:55:49.607Z,100631.44
2023-03-13T16:00:02.200Z,100636.25
2023-03-13T16:04:16.601Z,100638.25
2023-03-13T16:08:36.525Z,100636.56
2023-03-13T16:12:53.182Z,100639.59
2023-03-13T16:17:17.940Z,100648.78
2023-03-13T16:21:34.956Z,100656.16
2023-03-13T16:25:48.941Z,100661.63
2023-03-13T16:30:07.156Z,100675.13
2023-03-13T16:34:19.426Z,100670.09
2023-03-13T16:38:31.836Z,100680.84
2023-03-13T16:42:44.798Z,100687.16
2023-03-13T16:47:05.664Z,100683.78
2023-03-13T16:51:23.247Z,100690.06
2023-03-13T16:55:37.606Z,100689.19
2023-03-13T16:59:50.395Z,100697.28
2023-03-13T17:04:03.151Z,100688.47
2023-03-13T17:08:15.570Z,100685.88
2023-03-13T17:12:28.559Z,100672.63
2023-03-13T17:16:47.884Z,100677.09
2023-03-13T17:21:01.869Z,100682.44
2023-03-13T17:25:14.881Z,100677.19
2023-03-13T17:29:27.458Z,100664.91
2023-03-13T17:33:41.190Z,100666.78
2023-03-13T17:37:53.734Z,100669.53
2023-03-13T17:42:06.292Z,100673.78
2023-03-13T17:46:23.829Z,100664.13
2023-03-13T17:50:36.564Z,100674.81
2023-03-13T17:54:49.038Z,100679.28
2023-03-13T17:59:01.580Z,100681.94
2023-03-13T18:03:14.164Z,100690.78
2023-03-13T18:07:29.129Z,100690.78
2023-03-13T18:11:42.159Z,100692.56
2023-03-13T18:15:54.602Z,100698.72
2023-03-13T18:20:17.497Z,100690.78
2023-03-13T18:24:30.101Z,100688.09
2023-03-13T18:28:42.458Z,100689.00
2023-03-13T18:32:55.271Z,100687.22
2023-03-13T18:37:28.442Z,100683.72
2023-03-13T18:41:42.350Z,100699.63
2023-03-13T18:45:54.749Z,100694.31
2023-03-13T18:50:28.464Z,100704.25
2023-03-13T18:54:41.255Z,100701.66
2023-03-13T18:58:56.238Z,100701.59
2023-03-13T19:03:08.589Z,100700.00
2023-03-13T19:07:26.544Z,100694.75
2023-03-13T19:11:39.511Z,100687.63
2023-03-13T19:15:52.103Z,100691.16
2023-03-13T19:20:04.921Z,100694.88
2023-03-13T19:24:17.592Z,100691.91
2023-03-13T19:28:29.968Z,100688.47
2023-03-13T19:32:42.341Z,100681.00
2023-03-13T19:36:54.828Z,100686.91
2023-03-13T19:41:08.870Z,100689.72
2023-03-13T19:45:22.347Z,100685.28
2023-03-13T19:49:34.853Z,100686.75
2023-03-13T19:53:47.310Z,100691.88
2023-03-13T19:57:59.691Z,100689.94
2023-03-13T20:02:12.294Z,100693.34
2023-03-13T20:06:30.369Z,100689.50
2023-03-13T20:10:42.818Z,100678.84
2023-03-13T20:14:55.193Z,100682.75
2023-03-13T20:19:07.658Z,100674.88
2023-03-13T20:23:20.085Z,100680.88
2023-03-13T20:27:32.480Z,100669.09
2023-03-13T20:31:45.035Z,100672.81
2023-03-13T20:36:01.138Z,100675.50
2023-03-13T20:40:13.839Z,100662.13
2023-03-13T20:44:26.381Z,100670.97
2023-03-13T20:48:40.189Z,100666.13
2023-03-13T20:52:52.736Z,100666.41
2023-03-13T20:57:05.714Z,100653.38
2023-03-13T21:01:19.570Z,100638.44
2023-03-13T21:05:32.288Z,100633.91
2023-03-13T21:09:44.703Z,100634.88
2023-03-13T21:13:57.112Z,100629.63
2023-03-13T21:18:11.660Z,100625.16
2023-03-13T21:22:27.599Z,100632.28
2023-03-13T21:26:42.817Z,100628.69
2023-03-13T21:30:56.798Z,100629.44
2023-03-13T21:35:10.066Z,100618.06
2023-03-13T21:39:23.035Z,100608.38
2023-03-13T21:43:35.658Z,100605.66
2023-03-13T21:47:48.001Z,100598.53
2023-03-13T21:52:00.396Z,100598.56
2023-03-13T21:56:17.626Z,100598.53
2023-03-13T22:00:34.172Z,100587.22
2023-03-13T22:04:46.587Z,100596.16
2023-03-13T22:09:08.629Z,100589.00
2023-03-13T22:13:21.832Z,100586.25
2023-03-13T22:17:34.193Z,100588.72
2023-03-13T22:21:46.895Z,100585.22
2023-03-13T22:26:00.192Z,100587.78
2023-03-13T22:30:12.984Z,100580.81
2023-03-13T22:34:26.273Z,100576.22
2023-03-13T22:38:40.078Z,100578.13
2023-03-13T22:42:52.520Z,100580.72
2023-03-13T22:47:05.715Z,100572.75
2023-03-13T22:51:19.216Z,100566.66
2023-03-13T22:55:33.611Z,100565.84
2023-03-13T22:59:46.097Z,100553.50
2023-03-13T23:03:58.792Z,100549.09
2023-03-13T23:08:11.955Z,100534.94
2023-03-13T23:12:25.018Z,100539.34
2023-03-13T23:16:37.412Z,100523.50
2023-03-13T23:20:50.589Z,100519.09
2023-03-13T23:25:03.050Z,100518.16
2023-03-13T23:29:16.708Z,100504.13
2023-03-13T23:33:29.516Z,100505.25
2023-03-13T23:37:41.848Z,100498.16
2023-03-13T23:41:54.290Z,100508.63
2023-03-13T23:46:14.845Z,100490.28
2023-03-13T23:50:27.156Z,100495.50
2023-03-13T23:54:39.555Z,100498.25
2023-03-13T23:58:55.033Z,100494.78
